Time;durP1;ratioP1;P1;durP2;ratioP2;P2;SDS_P1;SDS_P2;PMS_P1;PMS_P2;Temp;Humidity;BMP_temperature;BMP_pressure;BME280_temperature;BME280_humidity;BME280_pressure;Samples;Min_cycle;Max_cycle;Signal;HPM_P1;HPM_P2
2021/09/04 00:00:53;;;;;;;5.08;4.30;;;;;;;23.49;46.95;99238.13;1790442;79;21124;-68
2021/09/04 00:03:20;;;;;;;5.42;4.83;;;;;;;23.49;47.02;99240.30;1791071;80;21022;-69
2021/09/04 00:05:47;;;;;;;5.50;4.92;;;;;;;23.49;47.07;99244.91;1787955;79;21033;-69
2021/09/04 00:08:14;;;;;;;5.62;4.95;;;;;;;23.49;47.02;99245.72;1788901;79;21045;-69
2021/09/04 00:10:40;;;;;;;5.30;4.72;;;;;;;23.48;47.04;99244.63;1786950;79;21028;-69
2021/09/04 00:13:07;;;;;;;5.40;4.45;;;;;;;23.48;46.95;99241.91;1818959;78;21139;-69
2021/09/04 00:15:35;;;;;;;5.60;4.53;;;;;;;23.49;47.00;99250.33;1817188;78;21045;-69
2021/09/04 00:18:02;;;;;;;5.12;4.15;;;;;;;23.48;46.95;99247.33;1784812;80;21005;-69
2021/09/04 00:20:30;;;;;;;5.92;4.92;;;;;;;23.48;46.94;99253.56;1835838;77;21085;-69
2021/09/04 00:22:57;;;;;;;6.58;4.70;;;;;;;23.48;46.96;99254.92;1778684;79;22129;-69
2021/09/04 00:25:24;;;;;;;6.35;4.75;;;;;;;23.48;46.94;99254.11;1763278;78;21084;-69
2021/09/04 00:27:50;;;;;;;5.85;5.08;;;;;;;23.47;47.01;99243.81;1777750;79;21073;-69
2021/09/04 00:30:17;;;;;;;5.25;4.75;;;;;;;23.47;47.00;99245.17;1787880;79;21012;-69
2021/09/04 00:32:43;;;;;;;5.62;4.55;;;;;;;23.48;46.90;99248.69;1802026;78;21041;-69
2021/09/04 00:35:10;;;;;;;5.20;4.50;;;;;;;23.47;46.89;99249.75;1816604;78;21043;-69
2021/09/04 00:37:36;;;;;;;5.20;4.70;;;;;;;23.48;47.00;99259.53;1804501;78;21743;-68
2021/09/04 00:40:06;;;;;;;5.30;4.78;;;;;;;23.47;47.00;99256.02;1783040;79;21037;-69
2021/09/04 00:42:33;;;;;;;8.05;5.28;;;;;;;23.46;47.10;99258.44;1792832;78;21048;-69
2021/09/04 00:44:59;;;;;;;6.40;4.50;;;;;;;23.47;47.07;99260.59;1818623;77;20978;-69
2021/09/04 00:47:26;;;;;;;4.97;4.47;;;;;;;23.46;47.11;99254.37;1818787;77;21037;-69
2021/09/04 00:49:52;;;;;;;4.70;4.30;;;;;;;23.46;47.11;99257.62;1781118;79;21164;-69
2021/09/04 00:52:19;;;;;;;5.97;4.87;;;;;;;23.46;47.13;99254.37;1807052;78;21031;-70
2021/09/04 00:54:47;;;;;;;6.60;4.95;;;;;;;23.45;47.13;99245.14;1774908;79;21062;-68
2021/09/04 00:57:14;;;;;;;4.92;4.42;;;;;;;23.45;47.14;99251.40;1802325;78;20997;-69
2021/09/04 00:59:41;;;;;;;4.53;4.12;;;;;;;23.45;47.17;99252.75;1792946;78;21037;-69
2021/09/04 01:02:08;;;;;;;5.12;4.62;;;;;;;23.46;47.15;99249.50;1787548;78;21369;-69
2021/09/04 01:04:35;;;;;;;7.42;4.35;;;;;;;23.44;47.23;99242.98;1771667;80;21182;-68
2021/09/04 01:07:04;;;;;;;5.62;4.62;;;;;;;23.45;47.25;99243.78;1789738;79;21066;-68
2021/09/04 01:09:32;;;;;;;5.17;4.12;;;;;;;23.45;47.29;99246.50;1779473;79;21038;-68
2021/09/04 01:12:01;;;;;;;4.90;4.37;;;;;;;23.44;47.27;99255.17;1775602;79;21047;-68
2021/09/04 01:14:28;;;;;;;5.00;4.50;;;;;;;23.44;47.33;99254.37;1756324;80;21113;-69
2021/09/04 01:16:54;;;;;;;5.35;3.87;;;;;;;23.44;47.36;99258.44;1798433;79;21034;-69
2021/09/04 01:19:21;;;;;;;5.12;4.62;;;;;;;23.43;47.40;99256.27;1780084;80;21107;-69
2021/09/04 01:21:47;;;;;;;6.55;4.72;;;;;;;23.42;47.43;99255.98;1770645;79;21097;-69
2021/09/04 01:24:13;;;;;;;4.90;4.30;;;;;;;23.43;47.41;99262.20;1781136;79;21013;-69
2021/09/04 01:26:40;;;;;;;5.55;4.72;;;;;;;23.42;47.47;99267.38;1797761;79;21757;-69
2021/09/04 01:29:06;;;;;;;5.12;4.55;;;;;;;23.43;47.46;99264.41;1778163;79;20950;-69
2021/09/04 01:31:33;;;;;;;5.72;4.53;;;;;;;23.41;47.53;99265.20;1778770;79;21029;-68
2021/09/04 01:33:59;;;;;;;5.80;5.00;;;;;;;23.42;47.54;99262.75;1775718;79;20998;-69
2021/09/04 01:36:32;;;;;;;5.05;4.53;;;;;;;23.42;47.52;99268.73;1787984;79;20969;-69
2021/09/04 01:38:59;;;;;;;4.80;4.12;;;;;;;23.43;47.50;99268.98;1782092;79;21121;-69
2021/09/04 01:41:25;;;;;;;4.97;4.40;;;;;;;23.41;47.51;99274.70;1770594;79;21060;-69
2021/09/04 01:43:52;;;;;;;5.22;4.72;;;;;;;23.41;47.55;99277.92;1793921;79;20998;-68
2021/09/04 01:46:19;;;;;;;4.80;4.35;;;;;;;23.41;47.56;99280.63;1805849;79;21026;-68
2021/09/04 01:48:45;;;;;;;5.17;4.67;;;;;;;23.41;47.57;99281.98;1784391;80;21543;-68
2021/09/04 01:51:12;;;;;;;5.17;4.28;;;;;;;23.41;47.55;99274.70;1777247;79;21787;-68
2021/09/04 01:53:39;;;;;;;4.87;4.37;;;;;;;23.40;47.72;99274.41;1796624;79;21034;-68
2021/09/04 01:56:05;;;;;;;4.95;4.22;;;;;;;23.42;47.69;99274.15;1808840;79;21072;-68
2021/09/04 01:58:32;;;;;;;5.45;4.90;;;;;;;23.41;47.63;99276.05;1769291;79;21096;-69
2021/09/04 02:00:59;;;;;;;5.53;4.67;;;;;;;23.41;47.67;99281.47;1802399;79;21021;-69
2021/09/04 02:03:27;;;;;;;6.12;4.92;;;;;;;23.41;47.67;99282.83;1776888;79;21064;-68
2021/09/04 02:05:54;;;;;;;5.70;4.60;;;;;;;23.42;47.60;99282.28;1787938;79;21478;-68
2021/09/04 02:08:22;;;;;;;4.62;4.20;;;;;;;23.41;47.63;99286.05;1776815;79;21474;-70
2021/09/04 02:10:48;;;;;;;4.97;4.50;;;;;;;23.41;47.63;99281.98;1773167;79;21511;-69
2021/09/04 02:13:15;;;;;;;5.47;4.62;;;;;;;23.41;47.61;99287.41;1792333;79;21069;-68
2021/09/04 02:15:43;;;;;;;5.12;4.62;;;;;;;23.40;47.57;99292.02;1790212;79;21084;-68
2021/09/04 02:18:10;;;;;;;5.28;4.70;;;;;;;23.40;47.58;99293.38;1801072;78;21037;-69
2021/09/04 02:20:37;;;;;;;4.85;4.35;;;;;;;23.40;47.58;99296.09;1776216;79;21124;-68
2021/09/04 02:23:06;;;;;;;6.42;5.03;;;;;;;23.40;47.55;99291.22;1765481;80;21537;-68
2021/09/04 02:25:33;;;;;;;5.70;5.00;;;;;;;23.39;47.55;99281.44;1793806;78;21499;-69
2021/09/04 02:27:59;;;;;;;7.85;5.80;;;;;;;23.38;47.56;99286.59;1776901;79;21049;-68
2021/09/04 02:30:26;;;;;;;5.33;4.83;;;;;;;23.37;47.52;99285.76;1782111;78;21049;-67
2021/09/04 02:32:52;;;;;;;5.65;4.95;;;;;;;;;;1785309;79;21128;-68
2021/09/04 02:35:19;;;;;;;6.15;5.33;;;;;;;23.38;47.56;99283.89;1805124;79;21408;-68
2021/09/04 02:37:46;;;;;;;5.78;5.17;;;;;;;23.37;47.58;99281.70;1801717;78;21653;-68
2021/09/04 02:40:13;;;;;;;5.90;5.30;;;;;;;;;;1805668;78;21104;-69
2021/09/04 02:42:41;;;;;;;5.80;4.60;;;;;;;23.36;47.52;99278.72;1800114;79;21545;-71
2021/09/04 02:45:09;;;;;;;4.90;4.40;;;;;;;23.35;47.54;99275.20;1804836;78;21022;-71
2021/09/04 02:47:38;;;;;;;5.30;4.28;;;;;;;;;;1798086;79;21179;-69
2021/09/04 02:50:07;;;;;;;5.10;4.60;;;;;;;23.36;47.53;99292.28;1774538;79;21034;-68
2021/09/04 02:52:35;;;;;;;5.37;4.50;;;;;;;23.35;47.46;99295.53;1774211;79;21069;-67
2021/09/04 02:55:02;;;;;;;5.05;4.33;;;;;;;23.35;47.48;99293.34;1778638;79;21014;-67
2021/09/04 02:57:30;;;;;;;5.87;4.40;;;;;;;23.35;47.53;99286.56;1780570;80;21029;-67
2021/09/04 02:59:56;;;;;;;4.85;4.35;;;;;;;23.34;47.51;99293.89;1782483;79;22069;-68
2021/09/04 03:02:23;;;;;;;5.55;4.53;;;;;;;23.34;47.45;99291.73;1788532;79;21060;-68
2021/09/04 03:04:49;;;;;;;5.72;4.80;;;;;;;23.34;47.44;99290.38;1791146;79;21157;-69
2021/09/04 03:07:17;;;;;;;5.60;4.12;;;;;;;23.33;47.49;99295.50;1791284;78;21727;-68
2021/09/04 03:09:44;;;;;;;4.40;4.00;;;;;;;23.33;47.45;99300.41;1797503;79;21034;-68
2021/09/04 03:12:12;;;;;;;4.60;4.10;;;;;;;23.32;47.43;99296.59;1802734;79;21043;-67
2021/09/04 03:14:39;;;;;;;4.40;4.00;;;;;;;23.32;47.48;99291.17;1799892;79;21453;-67
2021/09/04 03:17:06;;;;;;;4.15;3.75;;;;;;;23.31;47.42;99299.85;1786319;79;21135;-69
2021/09/04 03:19:33;;;;;;;4.95;4.03;;;;;;;23.31;47.43;99301.20;1790983;79;21026;-68
2021/09/04 03:22:02;;;;;;;4.78;3.83;;;;;;;23.31;47.43;99306.63;1798478;78;21018;-68
2021/09/04 03:24:28;;;;;;;4.53;4.12;;;;;;;23.31;47.42;99314.76;1786905;79;21080;-69
2021/09/04 03:26:56;;;;;;;4.72;4.33;;;;;;;23.30;47.42;99325.30;1783262;79;21009;-68
2021/09/04 03:29:24;;;;;;;6.08;3.75;;;;;;;23.30;47.37;99322.59;1785114;79;21119;-68
2021/09/04 03:31:50;;;;;;;4.25;3.87;;;;;;;23.30;47.37;99326.66;1809094;77;20990;-68
2021/09/04 03:34:17;;;;;;;4.50;3.65;;;;;;;23.29;47.39;99337.21;1808937;77;21049;-68
2021/09/04 03:36:43;;;;;;;6.08;4.12;;;;;;;23.29;47.43;99339.92;1805187;78;21073;-68
2021/09/04 03:39:09;;;;;;;4.15;3.75;;;;;;;23.29;47.37;99346.69;1774311;79;20962;-68
2021/09/04 03:41:37;;;;;;;4.22;3.67;;;;;;;23.30;47.41;99355.66;1784933;78;21152;-68
2021/09/04 03:44:05;;;;;;;4.22;3.83;;;;;;;23.29;47.33;99356.73;1812370;77;21080;-69
2021/09/04 03:46:32;;;;;;;4.10;3.70;;;;;;;23.30;47.33;99361.08;1799415;78;20998;-69
2021/09/04 03:49:00;;;;;;;4.03;3.62;;;;;;;23.29;47.36;99360.79;1786842;79;21136;-66
2021/09/04 03:51:28;;;;;;;4.00;3.42;;;;;;;23.29;47.31;99365.66;1774176;79;21758;-67
2021/09/04 03:53:56;;;;;;;4.80;3.58;;;;;;;23.29;47.33;99362.14;1795392;79;21495;-67
2021/09/04 03:56:23;;;;;;;4.50;3.33;;;;;;;23.29;47.32;99364.31;1799397;79;20998;-67
2021/09/04 03:58:50;;;;;;;4.37;3.98;;;;;;;23.29;47.30;99376.50;1790806;79;21026;-66
2021/09/04 04:01:18;;;;;;;4.42;3.92;;;;;;;23.29;47.35;99388.70;1796710;79;21880;-67
2021/09/04 04:03:47;;;;;;;4.22;3.90;;;;;;;23.32;47.58;99399.58;1786334;78;21061;-67
2021/09/04 04:06:14;;;;;;;4.90;4.12;;;;;;;23.34;47.77;99405.00;1784472;80;21116;-67
2021/09/04 04:08:41;;;;;;;4.30;3.87;;;;;;;23.38;47.84;99404.50;1739268;80;21012;-68
2021/09/04 04:11:10;;;;;;;3.72;3.22;;;;;;;23.41;47.87;99407.51;1775167;80;21152;-69
2021/09/04 04:13:39;;;;;;;4.78;3.42;;;;;;;23.44;47.75;99412.39;1771084;80;21498;-67
2021/09/04 04:16:05;;;;;;;4.65;3.15;;;;;;;23.47;47.65;99415.95;1769467;80;21011;-68
2021/09/04 04:18:33;;;;;;;4.25;3.27;;;;;;;23.50;47.51;99420.02;1764516;80;23253;-67
2021/09/04 04:21:01;;;;;;;5.37;2.90;;;;;;;23.52;47.43;99421.93;1764988;80;21024;-69
2021/09/04 04:23:28;;;;;;;3.52;3.22;;;;;;;23.54;47.33;99426.55;1747906;80;21560;-67
2021/09/04 04:25:55;;;;;;;3.17;2.87;;;;;;;23.55;47.17;99430.36;1762593;80;20998;-67
2021/09/04 04:28:22;;;;;;;4.50;2.98;;;;;;;23.57;47.05;99426.04;1739117;80;21033;-68
2021/09/04 04:30:49;;;;;;;3.87;3.20;;;;;;;23.59;46.96;99440.15;1770866;79;21118;-67
2021/09/04 04:33:15;;;;;;;3.10;2.80;;;;;;;23.60;46.78;99447.19;1765243;80;21070;-68
2021/09/04 04:35:43;;;;;;;3.20;2.70;;;;;;;23.62;46.68;99438.25;1764098;79;21049;-67
2021/09/04 04:38:09;;;;;;;3.75;2.92;;;;;;;23.63;46.61;99443.97;1764385;80;21487;-68
2021/09/04 04:40:36;;;;;;;2.85;2.60;;;;;;;23.63;46.39;99452.10;1769663;79;21618;-68
2021/09/04 04:43:04;;;;;;;2.95;2.72;;;;;;;23.64;46.27;99457.81;1763268;80;21111;-68
2021/09/04 04:45:31;;;;;;;4.17;2.67;;;;;;;23.66;46.17;99456.17;1761679;80;21098;-67
2021/09/04 04:47:58;;;;;;;3.50;2.58;;;;;;;23.66;46.07;99462.44;1761797;80;21051;-67
2021/09/04 04:50:24;;;;;;;3.00;2.70;;;;;;;23.68;45.97;99467.06;1761446;79;21050;-67
2021/09/04 04:52:52;;;;;;;3.27;2.70;;;;;;;23.69;45.88;99468.67;1760924;80;21074;-67
2021/09/04 04:55:19;;;;;;;2.98;2.67;;;;;;;23.69;45.74;99470.03;1755768;80;21050;-67
2021/09/04 04:57:46;;;;;;;2.62;2.30;;;;;;;23.71;45.70;99473.30;1752297;79;21028;-68
2021/09/04 05:00:15;;;;;;;2.62;2.33;;;;;;;23.72;45.54;99474.95;1775998;80;21046;-67
2021/09/04 05:02:44;;;;;;;3.17;2.85;;;;;;;23.72;45.48;99480.37;1790973;78;21059;-67
2021/09/04 05:05:12;;;;;;;2.33;2.12;;;;;;;23.74;45.41;99484.18;1773869;80;21069;-68
2021/09/04 05:07:39;;;;;;;2.95;2.65;;;;;;;23.73;45.31;99487.41;1797846;79;21152;-68
2021/09/04 05:10:09;;;;;;;3.22;2.40;;;;;;;23.73;45.24;99491.48;1789918;78;21021;-67
2021/09/04 05:12:36;;;;;;;2.90;2.60;;;;;;;23.73;45.17;99492.03;1773266;80;21065;-66
2021/09/04 05:15:05;;;;;;;3.22;2.60;;;;;;;23.72;45.10;99493.93;1781782;78;21067;-67
2021/09/04 05:17:31;;;;;;;2.10;1.85;;;;;;;23.73;45.04;99495.55;1756773;80;21018;-68
2021/09/04 05:19:59;;;;;;;2.58;2.35;;;;;;;23.73;44.99;99501.52;1781607;78;21141;-68
2021/09/04 05:22:26;;;;;;;2.55;2.35;;;;;;;23.73;44.97;99498.80;1772129;80;21092;-68
2021/09/04 05:24:53;;;;;;;2.08;1.87;;;;;;;23.73;44.90;99500.97;1792337;80;21580;-68
2021/09/04 05:27:20;;;;;;;4.08;2.42;;;;;;;23.73;44.83;99502.88;1767697;80;21039;-67
2021/09/04 05:29:47;;;;;;;2.30;2.02;;;;;;;23.73;44.78;99507.75;1796637;79;21020;-67
2021/09/04 05:32:21;;;;;;;2.12;1.92;;;;;;;23.74;44.73;99509.95;1793727;78;21129;-68
2021/09/04 05:34:43;;;;;;;2.67;2.20;;;;;;;23.74;44.65;99512.66;1774957;79;21065;-67
2021/09/04 05:37:09;;;;;;;2.22;2.02;;;;;;;23.75;44.61;99515.08;1788632;79;21010;-68
2021/09/04 05:39:35;;;;;;;2.40;2.20;;;;;;;23.76;44.56;99511.86;1774915;80;21467;-67
2021/09/04 05:42:02;;;;;;;2.45;2.15;;;;;;;23.78;44.58;99521.06;1789730;78;21079;-68
2021/09/04 05:44:29;;;;;;;2.05;1.85;;;;;;;23.78;44.59;99526.48;1767432;80;21747;-67
2021/09/04 05:46:55;;;;;;;3.40;2.33;;;;;;;23.80;44.69;99534.70;1767886;80;21038;-67
2021/09/04 05:49:21;;;;;;;2.17;1.90;;;;;;;23.80;44.66;99537.41;1782628;78;21061;-68
2021/09/04 05:51:48;;;;;;;2.50;2.30;;;;;;;23.82;44.70;99536.61;1773374;80;21042;-67
2021/09/04 05:54:14;;;;;;;2.98;1.90;;;;;;;23.83;44.70;99539.58;1787757;78;21013;-67
2021/09/04 05:56:41;;;;;;;1.80;1.70;;;;;;;23.84;44.68;99545.84;1775280;80;21101;-67
2021/09/04 05:59:07;;;;;;;2.55;2.15;;;;;;;23.83;44.69;99540.94;1790646;78;20996;-67
2021/09/04 06:01:34;;;;;;;2.12;1.90;;;;;;;23.86;44.55;99546.40;1772823;80;21501;-67
2021/09/04 06:04:01;;;;;;;2.10;1.90;;;;;;;23.86;44.40;99543.14;1772834;79;21509;-67
2021/09/04 06:06:28;;;;;;;2.45;2.05;;;;;;;23.87;44.40;99550.73;1779453;80;21058;-68
2021/09/04 06:08:57;;;;;;;2.42;2.05;;;;;;;23.88;44.42;99553.73;1776640;80;21097;-67
2021/09/04 06:11:23;;;;;;;2.33;1.80;;;;;;;23.89;44.22;99556.71;1785869;80;21072;-68
2021/09/04 06:13:51;;;;;;;2.45;2.02;;;;;;;23.89;44.16;99557.55;1766381;80;20984;-68
2021/09/04 06:16:18;;;;;;;3.77;1.80;;;;;;;23.91;44.00;99555.91;1784595;79;21063;-68
2021/09/04 06:18:44;;;;;;;2.20;2.00;;;;;;;23.90;43.91;99552.39;1768388;80;20994;-68
2021/09/04 06:21:10;;;;;;;2.15;1.95;;;;;;;23.92;43.84;99554.30;1775997;80;21165;-69
2021/09/04 06:23:37;;;;;;;2.10;1.90;;;;;;;23.93;43.82;99549.69;1770443;79;21043;-68
2021/09/04 06:26:03;;;;;;;3.30;1.90;;;;;;;23.94;43.77;99549.43;1772024;80;21070;-69
2021/09/04 06:28:29;;;;;;;4.03;2.10;;;;;;;23.97;43.71;99554.89;1771650;80;20999;-68
2021/09/04 06:30:56;;;;;;;2.33;1.87;;;;;;;23.98;43.69;99560.58;1782821;80;20996;-67
2021/09/04 06:33:23;;;;;;;2.58;1.82;;;;;;;23.99;43.75;99558.16;1779291;79;21049;-68
2021/09/04 06:35:49;;;;;;;2.40;2.12;;;;;;;24.02;43.78;99559.52;1770872;80;21078;-67
2021/09/04 06:38:17;;;;;;;2.22;2.02;;;;;;;24.03;43.80;99561.14;1770626;80;21117;-68
2021/09/04 06:40:44;;;;;;;2.67;2.47;;;;;;;24.06;43.78;99568.77;1767224;80;20994;-67
2021/09/04 06:43:10;;;;;;;2.33;2.10;;;;;;;24.08;43.77;99572.84;1778561;79;21281;-68
2021/09/04 06:45:37;;;;;;;2.25;2.00;;;;;;;24.10;43.74;99577.47;1779911;80;21069;-67
2021/09/04 06:48:05;;;;;;;2.10;1.87;;;;;;;24.12;43.79;99578.03;1778412;80;21049;-68
2021/09/04 06:50:32;;;;;;;2.85;2.45;;;;;;;24.15;43.73;99586.20;1770630;80;21045;-68
2021/09/04 06:53:01;;;;;;;2.83;2.00;;;;;;;24.18;43.68;99586.21;1769915;79;21042;-67
2021/09/04 06:55:28;;;;;;;3.72;2.80;;;;;;;24.20;43.70;99582.15;1767543;80;21050;-67
2021/09/04 06:57:55;;;;;;;3.22;2.25;;;;;;;24.21;43.66;99590.58;1762545;80;21104;-67
2021/09/04 07:00:22;;;;;;;6.12;3.58;;;;;;;24.23;43.64;99593.04;1773340;80;21107;-68
2021/09/04 07:02:49;;;;;;;2.60;2.40;;;;;;;24.24;43.57;99590.07;1761854;80;21052;-69
2021/09/04 07:05:15;;;;;;;2.83;2.52;;;;;;;24.26;43.58;99597.92;1771981;79;21045;-69
2021/09/04 07:07:42;;;;;;;4.22;1.98;;;;;;;24.27;43.59;99600.93;1788287;79;20990;-69
2021/09/04 07:10:09;;;;;;;4.58;2.50;;;;;;;24.27;43.57;99607.72;1788587;79;21831;-69
2021/09/04 07:12:36;;;;;;;5.10;2.25;;;;;;;24.28;43.72;99612.89;1779961;79;21015;-68
2021/09/04 07:15:05;;;;;;;3.55;2.33;;;;;;;24.29;43.80;99618.58;1793981;79;20990;-68
2021/09/04 07:17:32;;;;;;;2.72;2.25;;;;;;;24.30;43.80;99618.88;1779999;79;21139;-68
2021/09/04 07:20:00;;;;;;;2.83;2.15;;;;;;;24.32;43.79;99619.43;1789870;79;21060;-69
2021/09/04 07:22:26;;;;;;;4.37;2.15;;;;;;;24.33;43.78;99617.52;1792749;79;21219;-69
2021/09/04 07:24:52;;;;;;;6.60;3.37;;;;;;;24.34;43.82;99622.70;1788083;79;21026;-70
2021/09/04 07:27:19;;;;;;;2.95;2.17;;;;;;;24.35;43.74;99628.94;1767280;79;21081;-70
2021/09/04 07:29:45;;;;;;;3.83;2.15;;;;;;;24.36;43.67;99631.94;1775620;79;21064;-69
2021/09/04 07:32:12;;;;;;;3.12;2.15;;;;;;;24.38;43.57;99633.85;1793794;79;21084;-69
2021/09/04 07:34:39;;;;;;;3.83;2.15;;;;;;;24.39;43.59;99636.83;1806097;79;21117;-69
2021/09/04 07:37:05;;;;;;;3.95;1.90;;;;;;;24.40;43.57;99634.41;1789326;79;20998;-69
2021/09/04 07:39:32;;;;;;;2.35;1.70;;;;;;;24.40;43.59;99633.05;1810809;77;21077;-70
2021/09/04 07:41:59;;;;;;;9.95;4.92;;;;;;;24.42;43.57;99629.53;1812784;78;21069;-71
2021/09/04 07:44:25;;;;;;;14.87;4.90;;;;;;;24.43;43.57;99627.08;1783166;80;20969;-69
2021/09/04 07:46:52;;;;;;;16.23;4.70;;;;;;;24.44;43.70;99621.94;1809139;78;21125;-68
2021/09/04 07:49:18;;;;;;;8.83;4.62;;;;;;;24.47;43.92;99620.07;1786880;78;21041;-71
2021/09/04 07:51:45;;;;;;;11.33;5.10;;;;;;;24.49;44.07;99626.56;1785066;79;21054;-72
2021/09/04 07:54:11;;;;;;;11.35;4.10;;;;;;;24.50;44.36;99621.44;1831896;77;21018;-68
2021/09/04 07:56:38;;;;;;;13.05;5.03;;;;;;;24.52;44.59;99626.90;1833301;77;20999;-69
2021/09/04 07:59:06;;;;;;;10.78;4.70;;;;;;;24.55;44.39;99627.45;1802458;78;21116;-69
2021/09/04 08:01:34;;;;;;;8.03;4.92;;;;;;;24.57;44.45;99632.08;1811300;78;21028;-68
2021/09/04 08:04:01;;;;;;;8.83;4.35;;;;;;;24.58;44.51;99632.37;1801262;77;21092;-69
2021/09/04 08:06:27;;;;;;;10.58;4.62;;;;;;;24.59;44.46;99637.55;1794990;78;21014;-68
2021/09/04 08:08:55;;;;;;;6.80;4.30;;;;;;;24.60;44.18;99637.80;1801607;78;21084;-67
2021/09/04 08:11:22;;;;;;;7.95;3.90;;;;;;;24.60;43.81;99633.73;1779646;80;21201;-68
2021/09/04 08:13:49;;;;;;;5.50;3.40;;;;;;;24.61;43.57;99631.82;1788562;79;21045;-69
2021/09/04 08:16:17;;;;;;;9.15;3.58;;;;;;;24.61;43.31;99631.82;1787141;79;21041;-69
2021/09/04 08:20:53;;;;;;;7.42;4.37;;;;;;;24.67;43.04;99632.16;1800472;78;22616;-68
2021/09/04 08:23:19;;;;;;;9.18;4.10;;;;;;;24.63;43.17;99637.29;1763499;80;21017;-68
2021/09/04 08:25:46;;;;;;;6.62;3.47;;;;;;;24.65;42.50;99627.52;1768433;79;21137;-68
2021/09/04 08:28:13;;;;;;;7.08;3.17;;;;;;;24.63;41.39;99631.86;1778372;80;20973;-69
2021/09/04 08:30:39;;;;;;;5.50;3.02;;;;;;;24.61;41.33;99625.03;1755960;80;21500;-68
2021/09/04 08:33:06;;;;;;;7.47;2.90;;;;;;;24.60;41.34;99635.64;1765632;79;21512;-67
2021/09/04 08:35:32;;;;;;;7.90;3.45;;;;;;;24.57;41.33;99638.34;1766334;80;21081;-70
2021/09/04 08:38:04;;;;;;;6.05;3.35;;;;;;;24.55;41.49;99641.02;1770674;80;21133;-66
2021/09/04 08:40:27;;;;;;;5.33;3.20;;;;;;;24.52;41.54;99645.91;1764348;80;21036;-68
2021/09/04 08:43:02;;;;;;;5.10;3.05;;;;;;;24.51;41.48;99638.02;1767628;80;20993;-70
2021/09/04 08:45:33;;;;;;;6.62;3.75;;;;;;;24.49;41.40;99635.55;1773543;79;21210;-67
2021/09/04 08:48:00;;;;;;;4.78;3.22;;;;;;;24.48;41.38;99636.63;1719530;83;21605;-69
2021/09/04 08:50:27;;;;;;;7.75;3.80;;;;;;;24.48;41.11;99631.19;1733929;81;21198;-68
2021/09/04 08:52:53;;;;;;;5.53;3.25;;;;;;;24.49;41.24;99631.48;1707329;83;21108;-68
2021/09/04 08:55:21;;;;;;;6.15;3.65;;;;;;;24.51;41.15;99629.35;1702748;83;21046;-68
2021/09/04 08:58:06;;;;;;;9.40;4.15;;;;;;;24.51;41.18;99628.00;1729629;81;21618;-68
2021/09/04 09:00:36;;;;;;;7.65;4.10;;;;;;;24.53;40.98;99633.98;1737764;81;21082;-68
2021/09/04 09:03:02;;;;;;;7.83;2.70;;;;;;;24.53;40.92;99632.63;1729551;81;21232;-67
2021/09/04 09:05:39;;;;;;;6.05;3.65;;;;;;;24.45;40.50;99626.82;1753022;81;21061;-67
2021/09/04 09:08:07;;;;;;;7.22;3.27;;;;;;;24.50;40.46;99640.44;1750134;81;21685;-67
2021/09/04 09:10:37;;;;;;;4.62;3.08;;;;;;;24.47;40.45;99638.23;1745543;81;21100;-67
2021/09/04 09:13:06;;;;;;;5.15;3.58;;;;;;;24.45;40.39;99643.92;1756305;81;21026;-67
2021/09/04 09:15:37;;;;;;;8.50;4.30;;;;;;;24.44;40.43;99648.28;1751803;81;21089;-67
2021/09/04 09:18:15;;;;;;;5.00;3.40;;;;;;;24.43;40.22;99642.01;1736291;81;21061;-67
2021/09/04 09:20:49;;;;;;;4.78;3.22;;;;;;;24.44;40.08;99646.38;1733297;81;21517;-67
2021/09/04 09:23:18;;;;;;;5.97;3.10;;;;;;;24.44;39.94;99646.92;1732604;82;21014;-67
2021/09/04 09:25:46;;;;;;;5.85;3.15;;;;;;;24.43;40.08;99644.73;1738930;81;21086;-67
2021/09/04 09:28:18;;;;;;;4.45;2.67;;;;;;;24.43;40.07;99661.02;1717308;82;21189;-66
2021/09/04 09:30:48;;;;;;;7.33;2.98;;;;;;;24.43;39.95;99652.88;1723612;82;21062;-67
2021/09/04 09:33:17;;;;;;;3.90;2.70;;;;;;;24.41;40.02;99653.67;1747916;82;21032;-67
2021/09/04 09:35:55;;;;;;;5.12;2.77;;;;;;;24.44;39.86;99654.52;1743579;82;21494;-66
2021/09/04 09:38:27;;;;;;;8.38;3.05;;;;;;;24.46;39.97;99661.05;1733772;82;21097;-68
2021/09/04 09:40:55;;;;;;;5.87;3.22;;;;;;;24.50;40.62;99656.73;1724594;82;21196;-66
2021/09/04 09:43:32;;;;;;;6.33;3.55;;;;;;;24.56;41.28;99656.25;1743619;82;21090;-66
2021/09/04 09:46:03;;;;;;;9.05;3.45;;;;;;;24.62;41.14;99663.34;1730427;82;21065;-65
2021/09/04 09:48:32;;;;;;;5.62;2.92;;;;;;;24.66;41.31;99662.55;1737071;82;21085;-67
2021/09/04 09:51:02;;;;;;;6.55;2.65;;;;;;;24.72;41.53;99666.11;1738830;82;21091;-66
2021/09/04 09:53:29;;;;;;;6.12;2.40;;;;;;;24.76;41.16;99669.92;1732395;82;21149;-66
2021/09/04 09:55:57;;;;;;;6.87;3.87;;;;;;;24.80;41.05;99669.70;1715648;82;21563;-68
2021/09/04 09:58:25;;;;;;;10.30;4.58;;;;;;;24.82;40.61;99677.05;1756170;80;21109;-68
2021/09/04 10:00:54;;;;;;;9.03;4.22;;;;;;;24.85;41.47;99683.84;1777147;80;21006;-67
2021/09/04 10:03:23;;;;;;;13.93;4.30;;;;;;;24.88;41.76;99684.69;1779758;80;21322;-67
2021/09/04 10:05:49;;;;;;;7.95;3.40;;;;;;;24.89;42.22;99678.16;1761356;80;21132;-68
2021/09/04 10:08:19;;;;;;;5.22;2.65;;;;;;;24.93;41.72;99677.90;1751109;80;21029;-67
2021/09/04 10:10:47;;;;;;;7.22;2.92;;;;;;;24.97;41.81;99678.19;1758171;80;21084;-66
2021/09/04 10:13:14;;;;;;;5.97;2.58;;;;;;;25.02;41.22;99674.15;1776233;80;21042;-68
2021/09/04 10:15:46;;;;;;;3.15;2.30;;;;;;;25.06;41.11;99679.33;1780454;80;21120;-67
2021/09/04 10:18:13;;;;;;;4.05;2.27;;;;;;;25.11;40.26;99676.61;1748341;80;22627;-69
2021/09/04 10:20:41;;;;;;;2.35;2.08;;;;;;;25.15;39.70;99676.38;1755384;80;21054;-68
2021/09/04 10:23:24;;;;;;;2.40;1.95;;;;;;;25.18;39.57;99686.70;1714678;82;21008;-67
2021/09/04 10:25:50;;;;;;;;;;;;;;;25.20;39.05;99688.61;1745296;80;21560;-68
2021/09/04 10:28:17;;;;;;;4.47;2.20;;;;;;;25.24;38.81;99676.15;1718606;81;20193;-67
2021/09/04 10:30:47;;;;;;;3.47;1.80;;;;;;;25.26;38.71;99671.81;1742564;82;21140;-67
2021/09/04 10:33:18;;;;;;;3.02;1.90;;;;;;;25.31;38.40;99671.28;1701936;82;21031;-68
2021/09/04 10:35:54;;;;;;;2.77;1.90;;;;;;;25.37;37.88;99675.39;1738413;80;21093;-69
2021/09/04 10:38:28;;;;;;;3.75;1.60;;;;;;;25.43;37.74;99679.20;1743153;80;21034;-67
2021/09/04 10:41:17;;;;;;;4.78;2.00;;;;;;;25.51;37.51;99686.83;1737842;81;21089;-68
2021/09/04 10:43:45;;;;;;;2.17;1.87;;;;;;;25.57;37.45;99678.14;1732118;81;21180;-68
2021/09/04 10:46:12;;;;;;;2.02;1.70;;;;;;;25.61;37.07;99684.70;1741197;81;21036;-66
2021/09/04 10:48:40;;;;;;;1.95;1.75;;;;;;;25.67;36.83;99692.30;1747548;80;22246;-68
2021/09/04 10:51:09;;;;;;;2.22;1.80;;;;;;;25.68;36.79;99693.40;1730855;80;21014;-67
2021/09/04 10:53:51;;;;;;;1.72;1.60;;;;;;;25.69;36.68;99691.48;1747781;81;21022;-67
2021/09/04 10:56:23;;;;;;;2.42;1.62;;;;;;;25.69;36.57;99692.84;1766617;80;21094;-68
2021/09/04 10:58:52;;;;;;;2.37;1.77;;;;;;;25.67;36.47;99695.86;1730425;81;21057;-68
2021/09/04 11:01:39;;;;;;;5.62;1.98;;;;;;;25.68;36.61;99696.13;1744554;81;21131;-67
2021/09/04 11:04:06;;;;;;;2.55;2.05;;;;;;;25.70;36.43;99708.09;1755335;81;21225;-68
2021/09/04 11:06:33;;;;;;;6.60;3.08;;;;;;;25.71;36.55;99702.95;1758342;80;21537;-66
2021/09/04 11:08:59;;;;;;;6.95;3.02;;;;;;;25.72;36.39;99698.31;1734504;81;22444;-68
2021/09/04 11:11:36;;;;;;;8.13;3.55;;;;;;;25.75;36.54;99699.12;1746164;81;21009;-67
2021/09/04 11:14:20;;;;;;;10.65;4.50;;;;;;;25.80;36.39;99696.41;1738778;80;21105;-70
2021/09/04 11:16:54;;;;;;;8.50;4.20;;;;;;;25.86;36.49;99698.89;1741378;81;21118;-67
2021/09/04 11:19:31;;;;;;;8.88;4.25;;;;;;;25.92;35.86;99699.72;1752938;81;21078;-68
2021/09/04 11:22:11;;;;;;;8.63;5.03;;;;;;;25.99;35.74;99690.75;1770766;80;21186;-67
2021/09/04 11:24:42;;;;;;;11.10;5.37;;;;;;;26.07;35.26;99685.31;1767282;80;21010;-68
2021/09/04 11:27:11;;;;;;;15.07;5.90;;;;;;;26.15;36.03;99683.95;1779730;80;21521;-69
2021/09/04 11:29:48;;;;;;;12.98;4.80;;;;;;;26.23;36.48;99689.67;1767595;80;21244;-69
2021/09/04 11:32:16;;;;;;;18.70;6.65;;;;;;;26.31;36.57;99692.91;1756898;80;21535;-69
2021/09/04 11:34:50;;;;;;;15.65;6.92;;;;;;;26.36;36.65;99697.01;1756541;80;21220;-68
2021/09/04 11:37:27;;;;;;;14.53;6.08;;;;;;;26.39;36.36;99699.20;1777996;80;21916;-69
2021/09/04 11:40:10;;;;;;;15.18;5.20;;;;;;;26.39;36.41;99700.56;1766561;80;21026;-68